Time;durP1;ratioP1;P1;durP2;ratioP2;P2;SDS_P1;SDS_P2;PMS_P1;PMS_P2;Temp;Humidity;BMP_temperature;BMP_pressure;BME280_temperature;BME280_humidity;BME280_pressure;Samples;Min_cycle;Max_cycle;Signal;HPM_P1;HPM_P2
2022/03/05 00:01:08;;;;;;;8.80;5.55;;;1.40;99.90;;;;;;4958099;28;20038;-71
2022/03/05 00:03:34;;;;;;;9.48;5.55;;;1.60;99.90;;;;;;4973227;28;20044;-72
2022/03/05 00:06:00;;;;;;;11.27;6.28;;;1.70;99.90;;;;;;4994838;28;20038;-71
2022/03/05 00:08:25;;;;;;;8.10;5.28;;;1.50;99.90;;;;;;4994208;28;20093;-72
2022/03/05 00:10:51;;;;;;;9.18;5.50;;;1.40;99.90;;;;;;4982192;28;20054;-72
2022/03/05 00:13:17;;;;;;;11.43;6.20;;;1.70;99.90;;;;;;4994060;28;20128;-73
2022/03/05 00:15:43;;;;;;;11.02;5.95;;;1.30;99.90;;;;;;4981138;28;20050;-73
2022/03/05 00:18:11;;;;;;;8.93;5.10;;;2.80;99.90;;;;;;4992035;28;20421;-72
2022/03/05 00:20:37;;;;;;;8.55;5.25;;;1.30;99.90;;;;;;5003732;28;20037;-73
2022/03/05 00:23:03;;;;;;;8.80;5.00;;;1.20;99.90;;;;;;4998798;28;20103;-72
2022/03/05 00:25:29;;;;;;;7.55;5.13;;;1.20;99.90;;;;;;4964115;28;20744;-73
2022/03/05 00:27:55;;;;;;;8.18;5.20;;;1.10;99.90;;;;;;4979482;28;20053;-73
2022/03/05 00:30:21;;;;;;;9.85;5.32;;;1.10;99.90;;;;;;4993270;28;20054;-73
2022/03/05 00:32:47;;;;;;;10.25;5.60;;;1.40;99.90;;;;;;4979064;28;20405;-73
2022/03/05 00:35:13;;;;;;;7.88;4.82;;;2.40;99.90;;;;;;4981516;28;20052;-74
2022/03/05 00:37:40;;;;;;;9.32;5.60;;;1.10;99.90;;;;;;4993039;28;20096;-74
2022/03/05 00:40:06;;;;;;;12.45;6.55;;;1.40;99.90;;;;;;4976106;28;20026;-74
2022/03/05 00:42:32;;;;;;;12.85;7.15;;;1.00;99.90;;;;;;4979635;28;20038;-73
2022/03/05 00:44:58;;;;;;;10.35;6.10;;;0.80;99.90;;;;;;4995274;28;20103;-71
2022/03/05 00:47:24;;;;;;;10.77;6.25;;;0.70;99.90;;;;;;4993407;28;20053;-72
2022/03/05 00:49:49;;;;;;;10.65;6.53;;;0.40;99.90;;;;;;4993168;28;20046;-72
2022/03/05 00:52:15;;;;;;;11.77;6.75;;;2.30;99.90;;;;;;5017290;28;20386;-72
2022/03/05 00:54:41;;;;;;;12.85;7.13;;;0.40;99.90;;;;;;5013532;28;20570;-72
2022/03/05 00:57:07;;;;;;;14.82;8.25;;;1.00;99.90;;;;;;5023135;28;20045;-73
2022/03/05 00:59:33;;;;;;;14.00;7.78;;;0.20;99.90;;;;;;5033685;28;20063;-73
2022/03/05 01:01:58;;;;;;;17.27;7.80;;;1.70;99.90;;;;;;5015570;28;20037;-73
2022/03/05 01:04:24;;;;;;;10.82;7.22;;;0.50;99.90;;;;;;4995508;28;20593;-72
2022/03/05 01:06:50;;;;;;;13.45;7.55;;;0.60;99.90;;;;;;5035861;28;20388;-73
2022/03/05 01:09:16;;;;;;;11.88;6.93;;;0.40;99.90;;;;;;5016556;28;20041;-73
2022/03/05 01:11:41;;;;;;;15.70;8.40;;;0.50;99.90;;;;;;5030791;28;20041;-73
2022/03/05 01:14:07;;;;;;;14.10;7.10;;;0.60;99.90;;;;;;5029892;28;20048;-75
2022/03/05 01:16:34;;;;;;;11.45;6.72;;;0.60;99.90;;;;;;5032041;28;20079;-73
2022/03/05 01:19:00;;;;;;;10.23;5.70;;;0.60;99.90;;;;;;5031612;28;20492;-72
2022/03/05 01:21:27;;;;;;;11.80;6.97;;;1.30;99.90;;;;;;5032043;28;20049;-72
2022/03/05 01:23:56;;;;;;;12.02;7.13;;;2.10;99.90;;;;;;5048769;28;20480;-72
2022/03/05 01:26:22;;;;;;;9.07;5.90;;;0.60;99.90;;;;;;5032626;28;20088;-72
2022/03/05 01:28:48;;;;;;;9.55;6.03;;;0.70;99.90;;;;;;5012412;28;20096;-72
2022/03/05 01:31:14;;;;;;;8.70;5.70;;;0.60;99.90;;;;;;5030986;28;20057;-72
2022/03/05 01:33:40;;;;;;;9.63;6.00;;;1.10;99.90;;;;;;5012986;28;20029;-73
2022/03/05 01:36:06;;;;;;;8.75;5.97;;;0.70;99.90;;;;;;5016772;28;20140;-73
2022/03/05 01:38:32;;;;;;;11.48;6.53;;;1.00;99.90;;;;;;5015112;28;20052;-73
2022/03/05 01:40:57;;;;;;;11.50;6.10;;;0.90;99.90;;;;;;5014474;28;20044;-73
2022/03/05 01:43:23;;;;;;;10.40;6.22;;;0.90;99.90;;;;;;5015408;28;20040;-73
2022/03/05 01:45:50;;;;;;;10.20;6.50;;;0.70;99.90;;;;;;5014514;28;20095;-73
2022/03/05 01:48:15;;;;;;;10.95;5.82;;;1.40;99.90;;;;;;5030646;28;20036;-73
2022/03/05 01:50:41;;;;;;;9.73;6.13;;;1.10;99.90;;;;;;5029058;28;20708;-73
2022/03/05 01:53:07;;;;;;;10.23;6.00;;;1.00;99.90;;;;;;5032139;28;20049;-73
2022/03/05 01:55:33;;;;;;;10.10;6.20;;;1.30;99.90;;;;;;5029700;28;20043;-73
2022/03/05 01:57:59;;;;;;;13.07;6.20;;;0.80;99.90;;;;;;5048829;28;20041;-73
2022/03/05 02:00:25;;;;;;;10.60;6.20;;;1.00;99.90;;;;;;5027473;28;20044;-73
2022/03/05 02:02:50;;;;;;;10.63;6.65;;;1.10;99.90;;;;;;5030705;28;20484;-73
2022/03/05 02:05:16;;;;;;;8.98;5.97;;;3.00;99.90;;;;;;5024119;28;20094;-73
2022/03/05 02:07:42;;;;;;;10.95;6.50;;;1.40;99.90;;;;;;5025385;28;20401;-72
2022/03/05 02:10:09;;;;;;;8.70;5.72;;;0.80;99.90;;;;;;5016408;28;20521;-73
2022/03/05 02:12:37;;;;;;;9.75;6.13;;;0.80;99.90;;;;;;5031064;28;20465;-73
2022/03/05 02:15:04;;;;;;;11.52;6.55;;;2.50;99.90;;;;;;5028609;28;20098;-73
2022/03/05 02:17:30;;;;;;;11.10;6.35;;;0.90;99.90;;;;;;5030121;28;20033;-73
2022/03/05 02:19:57;;;;;;;10.05;6.50;;;1.30;99.90;;;;;;5033848;28;20028;-73
2022/03/05 02:22:23;;;;;;;9.90;6.38;;;1.00;99.90;;;;;;5031983;28;20115;-73
2022/03/05 02:24:59;;;;;;;10.85;6.75;;;0.80;99.90;;;;;;5031020;28;20040;-73
2022/03/05 02:27:27;;;;;;;11.13;6.18;;;0.90;99.90;;;;;;5028396;28;20050;-73
2022/03/05 02:29:53;;;;;;;10.35;6.35;;;0.80;99.90;;;;;;5040342;28;20037;-73
2022/03/05 02:32:19;;;;;;;9.60;6.20;;;1.00;99.90;;;;;;5025060;28;20037;-73
2022/03/05 02:34:45;;;;;;;9.80;6.03;;;0.70;99.90;;;;;;5004409;28;20052;-73
2022/03/05 02:37:13;;;;;;;9.85;5.90;;;2.70;99.90;;;;;;5032157;28;20086;-73
2022/03/05 02:39:40;;;;;;;10.52;6.72;;;2.40;99.90;;;;;;5023008;28;20068;-74
2022/03/05 02:42:06;;;;;;;9.63;6.18;;;2.30;99.90;;;;;;5035921;28;20167;-74
2022/03/05 02:44:31;;;;;;;9.88;6.20;;;1.00;99.90;;;;;;5034445;28;20366;-72
2022/03/05 02:46:58;;;;;;;11.90;6.40;;;0.70;99.90;;;;;;5015418;28;20044;-74
2022/03/05 02:49:24;;;;;;;9.45;6.05;;;0.80;99.90;;;;;;5041073;28;20500;-74
2022/03/05 02:51:51;;;;;;;12.35;6.70;;;2.40;99.90;;;;;;5044007;28;20420;-74
2022/03/05 02:54:17;;;;;;;10.40;6.68;;;1.20;99.90;;;;;;5030106;28;20502;-74
2022/03/05 02:56:43;;;;;;;10.65;6.10;;;0.60;99.90;;;;;;5013477;28;20041;-74
2022/03/05 02:59:09;;;;;;;9.45;6.13;;;2.00;99.90;;;;;;4999979;28;20389;-73
2022/03/05 03:01:34;;;;;;;13.00;7.05;;;1.80;99.90;;;;;;5023602;28;20041;-73
2022/03/05 03:04:00;;;;;;;9.18;5.47;;;1.10;99.90;;;;;;5009308;28;20045;-74
2022/03/05 03:06:26;;;;;;;10.68;6.32;;;0.70;99.90;;;;;;5041874;28;20037;-74
2022/03/05 03:08:51;;;;;;;9.73;5.78;;;1.60;99.90;;;;;;5014351;28;20091;-74
2022/03/05 03:11:17;;;;;;;9.32;5.82;;;0.90;99.90;;;;;;5014131;28;20119;-74
2022/03/05 03:13:43;;;;;;;12.23;6.60;;;0.80;99.90;;;;;;5014469;28;20043;-73
2022/03/05 03:16:09;;;;;;;9.98;5.30;;;1.50;99.90;;;;;;5015888;28;20041;-74
2022/03/05 03:18:35;;;;;;;8.90;5.78;;;0.90;99.90;;;;;;5040326;28;20047;-75
2022/03/05 03:21:01;;;;;;;9.18;6.07;;;0.60;99.90;;;;;;5016691;28;20048;-74
2022/03/05 03:23:27;;;;;;;7.85;5.25;;;0.70;99.90;;;;;;5018157;28;20033;-74
2022/03/05 03:25:53;;;;;;;9.38;5.50;;;1.00;99.90;;;;;;5037129;28;20041;-74
2022/03/05 03:28:18;;;;;;;10.23;5.32;;;2.60;99.90;;;;;;5017565;28;20076;-75
2022/03/05 03:30:44;;;;;;;9.73;5.28;;;0.60;99.90;;;;;;5033369;28;20040;-75
2022/03/05 03:33:10;;;;;;;8.05;5.45;;;1.50;99.90;;;;;;5035529;28;20033;-75
2022/03/05 03:35:35;;;;;;;9.10;5.75;;;0.70;99.90;;;;;;5007665;28;20037;-73
2022/03/05 03:38:01;;;;;;;9.38;5.75;;;0.90;99.90;;;;;;5039572;28;20045;-73
2022/03/05 03:40:27;;;;;;;8.98;5.30;;;0.60;99.90;;;;;;5035354;28;20040;-73
2022/03/05 03:42:53;;;;;;;9.00;5.22;;;0.90;99.90;;;;;;5022643;28;20045;-73
2022/03/05 03:45:19;;;;;;;10.13;6.22;;;0.80;99.90;;;;;;5024168;28;20075;-73
2022/03/05 03:47:48;;;;;;;8.40;5.18;;;0.80;99.90;;;;;;5032356;28;20412;-73
2022/03/05 03:50:18;;;;;;;6.82;4.93;;;0.60;99.90;;;;;;5024652;28;20053;-73
2022/03/05 03:52:44;;;;;;;9.63;5.20;;;1.70;99.90;;;;;;5018758;28;20111;-73
2022/03/05 03:55:14;;;;;;;11.30;5.82;;;2.00;99.90;;;;;;4982332;28;20050;-73
2022/03/05 03:57:40;;;;;;;9.98;5.10;;;0.80;99.90;;;;;;4999699;28;20049;-74
2022/03/05 04:00:09;;;;;;;8.18;5.55;;;0.70;99.90;;;;;;4987743;28;20112;-73
2022/03/05 04:02:34;;;;;;;8.68;5.47;;;0.50;99.90;;;;;;4983766;28;20033;-74
2022/03/05 04:05:00;;;;;;;11.55;5.82;;;0.60;99.90;;;;;;4990657;28;20508;-75
2022/03/05 04:10:10;;;;;;;9.43;5.38;;;0.90;99.90;;;;;;4988160;28;20065;-74
2022/03/05 04:12:36;;;;;;;8.02;4.97;;;1.50;99.90;;;;;;4993055;28;20481;-74
2022/03/05 04:15:03;;;;;;;9.00;4.88;;;0.60;99.90;;;;;;4999035;28;20489;-74
2022/03/05 04:17:29;;;;;;;9.68;5.30;;;0.90;99.90;;;;;;4977989;28;20060;-74
2022/03/05 04:19:55;;;;;;;8.07;4.97;;;0.50;99.90;;;;;;4990717;28;20458;-73
2022/03/05 04:22:20;;;;;;;8.18;5.28;;;0.40;99.90;;;;;;5009548;28;20042;-74
2022/03/05 04:24:46;;;;;;;8.02;5.18;;;2.50;99.90;;;;;;4993180;28;20046;-74
2022/03/05 04:27:12;;;;;;;8.27;5.00;;;2.20;99.90;;;;;;4976294;28;20045;-74
2022/03/05 04:29:38;;;;;;;7.10;5.22;;;0.80;99.90;;;;;;4994188;28;20042;-75
2022/03/05 04:32:04;;;;;;;9.23;5.15;;;1.70;99.90;;;;;;4993248;28;20050;-74
2022/03/05 04:34:30;;;;;;;8.13;5.57;;;0.40;99.90;;;;;;4974350;28;20135;-74
2022/03/05 04:36:56;;;;;;;6.18;4.32;;;0.70;99.90;;;;;;4989221;28;20073;-74
2022/03/05 04:39:22;;;;;;;7.47;5.00;;;0.40;99.90;;;;;;4984558;28;20395;-74
2022/03/05 04:41:48;;;;;;;7.30;5.05;;;0.60;99.90;;;;;;4970977;28;20950;-74
2022/03/05 04:44:13;;;;;;;8.80;4.78;;;0.40;99.90;;;;;;4994238;28;20115;-73
2022/03/05 04:46:39;;;;;;;9.15;5.05;;;0.60;99.90;;;;;;4979062;28;20046;-74
2022/03/05 04:49:06;;;;;;;8.45;4.50;;;0.70;99.90;;;;;;4995688;28;20156;-74
2022/03/05 04:51:32;;;;;;;8.10;4.35;;;0.80;99.90;;;;;;4982768;28;20405;-73
2022/03/05 04:53:58;;;;;;;8.05;4.88;;;0.50;99.90;;;;;;5012318;28;20056;-73
2022/03/05 04:56:23;;;;;;;8.63;5.55;;;0.60;99.90;;;;;;4996914;28;20049;-73
2022/03/05 04:58:52;;;;;;;8.82;5.20;;;1.80;99.90;;;;;;4996941;28;20052;-73
2022/03/05 05:01:18;;;;;;;9.02;4.95;;;2.10;99.90;;;;;;4981489;28;20037;-74
2022/03/05 05:03:45;;;;;;;8.90;5.80;;;0.80;99.90;;;;;;5011767;28;20581;-74
2022/03/05 05:06:11;;;;;;;9.10;5.45;;;0.70;99.90;;;;;;5022540;28;20037;-73
2022/03/05 05:08:38;;;;;;;9.98;5.82;;;2.40;99.90;;;;;;5004161;28;20033;-72
2022/03/05 05:11:03;;;;;;;8.32;5.07;;;1.80;99.90;;;;;;5027487;28;20041;-72
2022/03/05 05:13:29;;;;;;;10.88;5.78;;;1.20;99.90;;;;;;4991960;28;20047;-73
2022/03/05 05:15:56;;;;;;;9.07;4.70;;;0.90;99.90;;;;;;4992231;28;20091;-74
2022/03/05 05:18:22;;;;;;;8.05;5.28;;;0.60;99.90;;;;;;4990828;28;20069;-74
2022/03/05 05:20:47;;;;;;;9.75;5.10;;;0.90;99.90;;;;;;5008851;28;20075;-74
2022/03/05 05:23:13;;;;;;;8.35;4.75;;;0.90;99.90;;;;;;4991750;28;20589;-74
2022/03/05 05:25:39;;;;;;;9.65;5.05;;;0.50;99.90;;;;;;5010164;28;20037;-74
2022/03/05 05:28:05;;;;;;;7.40;5.07;;;0.70;99.90;;;;;;5006194;28;20056;-74
2022/03/05 05:30:31;;;;;;;8.88;4.70;;;0.80;99.90;;;;;;5003614;28;20046;-73
2022/03/05 05:32:57;;;;;;;9.32;4.75;;;0.30;99.90;;;;;;5007758;28;20531;-73
2022/03/05 05:35:22;;;;;;;9.20;5.00;;;0.50;99.90;;;;;;4969205;28;20041;-74
2022/03/05 05:37:48;;;;;;;7.70;4.82;;;0.80;99.90;;;;;;5003250;28;20048;-74
2022/03/05 05:40:14;;;;;;;8.43;5.13;;;1.40;99.90;;;;;;5026517;28;20384;-74
2022/03/05 05:42:39;;;;;;;8.68;5.47;;;0.80;99.90;;;;;;5011714;28;20045;-74
2022/03/05 05:45:05;;;;;;;8.38;5.07;;;0.40;99.90;;;;;;4997051;28;20033;-73
2022/03/05 05:47:31;;;;;;;8.52;5.63;;;0.40;99.90;;;;;;4994175;28;20110;-73
2022/03/05 05:49:57;;;;;;;9.35;5.40;;;0.40;99.90;;;;;;4974123;28;20037;-74
2022/03/05 05:52:23;;;;;;;10.75;6.28;;;0.60;99.90;;;;;;5000306;28;20064;-74
2022/03/05 05:54:49;;;;;;;8.27;5.20;;;1.80;99.90;;;;;;4984073;28;20053;-75
2022/03/05 05:57:14;;;;;;;10.18;5.68;;;0.70;99.90;;;;;;4972081;28;20037;-75
2022/03/05 05:59:40;;;;;;;12.02;5.90;;;1.10;99.90;;;;;;4991895;28;20045;-75
2022/03/05 06:02:06;;;;;;;11.18;6.35;;;0.90;99.90;;;;;;4991517;28;20049;-75
2022/03/05 06:04:32;;;;;;;8.65;5.53;;;0.90;99.90;;;;;;4985409;28;20084;-75
2022/03/05 06:06:58;;;;;;;9.77;6.18;;;0.60;99.90;;;;;;4984400;28;20149;-75
2022/03/05 06:09:24;;;;;;;9.43;5.55;;;1.10;99.90;;;;;;4978361;28;20057;-74
2022/03/05 06:11:50;;;;;;;7.88;5.03;;;1.10;99.90;;;;;;4983315;28;20492;-75
2022/03/05 06:14:15;;;;;;;9.50;5.93;;;1.50;99.90;;;;;;4953146;28;20041;-75
2022/03/05 06:16:42;;;;;;;10.95;5.55;;;1.30;99.90;;;;;;4969726;28;20091;-74
2022/03/05 06:19:08;;;;;;;11.15;6.20;;;0.50;99.90;;;;;;4970449;28;20042;-74
2022/03/05 06:21:34;;;;;;;10.10;5.85;;;2.00;99.90;;;;;;4955573;28;20451;-75
2022/03/05 06:24:00;;;;;;;9.82;6.43;;;0.90;99.90;;;;;;4985097;28;20497;-75
2022/03/05 06:26:28;;;;;;;8.60;5.80;;;1.90;99.90;;;;;;4938072;28;20045;-74
2022/03/05 06:28:54;;;;;;;8.77;5.70;;;0.50;99.90;;;;;;4986511;28;20118;-74
2022/03/05 06:31:20;;;;;;;9.57;5.70;;;2.40;99.90;;;;;;5001103;28;20045;-74
2022/03/05 06:33:46;;;;;;;10.13;6.10;;;0.70;99.90;;;;;;4962667;28;20044;-74
2022/03/05 06:36:11;;;;;;;8.48;5.70;;;1.10;99.90;;;;;;4988135;28;20049;-75
2022/03/05 06:38:37;;;;;;;9.95;5.88;;;1.00;99.90;;;;;;4980326;28;20042;-74
2022/03/05 06:41:03;;;;;;;11.35;6.43;;;1.40;99.90;;;;;;5008060;28;20050;-75
2022/03/05 06:43:29;;;;;;;11.32;6.28;;;1.10;99.90;;;;;;4959981;28;20037;-75
2022/03/05 06:45:55;;;;;;;11.68;6.40;;;1.10;99.90;;;;;;4976415;28;20056;-75
2022/03/05 06:48:20;;;;;;;10.90;6.85;;;1.00;99.90;;;;;;4992703;28;20062;-75
2022/03/05 06:50:46;;;;;;;10.30;6.63;;;1.60;99.90;;;;;;5008883;28;20444;-74
2022/03/05 06:53:12;;;;;;;8.73;6.10;;;1.20;99.90;;;;;;5012585;28;20396;-74
2022/03/05 06:55:38;;;;;;;10.80;6.78;;;1.40;99.90;;;;;;5031757;28;20063;-74
2022/03/05 06:58:03;;;;;;;11.30;6.50;;;2.20;99.90;;;;;;5032097;28;20099;-74
2022/03/05 07:00:29;;;;;;;11.65;7.28;;;1.90;99.90;;;;;;5019310;28;20120;-74
2022/03/05 07:03:02;;;;;;;9.27;6.38;;;2.10;99.90;;;;;;5036275;28;20077;-74
2022/03/05 07:05:27;;;;;;;10.02;6.70;;;3.10;99.90;;;;;;5027391;28;20028;-74
2022/03/05 07:07:53;;;;;;;10.05;6.55;;;3.40;99.90;;;;;;5016877;28;20133;-74
2022/03/05 07:10:19;;;;;;;8.70;6.07;;;2.70;99.90;;;;;;5015693;28;20076;-75
2022/03/05 07:12:44;;;;;;;9.98;6.28;;;2.70;99.90;;;;;;5015984;28;20103;-75
2022/03/05 07:15:10;;;;;;;8.85;5.93;;;2.60;99.90;;;;;;5038942;28;20468;-75
2022/03/05 07:17:37;;;;;;;10.45;5.82;;;2.60;99.90;;;;;;5032534;28;20032;-75
2022/03/05 07:20:04;;;;;;;8.48;5.55;;;2.20;99.90;;;;;;5046968;28;20052;-75
2022/03/05 07:22:30;;;;;;;10.93;6.18;;;2.30;99.90;;;;;;5017696;28;20483;-73
2022/03/05 07:24:56;;;;;;;10.40;5.90;;;2.30;99.90;;;;;;5013066;28;20037;-75
2022/03/05 07:27:22;;;;;;;10.93;6.18;;;3.10;99.90;;;;;;5004251;28;20106;-74
2022/03/05 07:29:47;;;;;;;10.48;6.63;;;3.00;99.90;;;;;;5031527;28;20071;-74
2022/03/05 07:32:13;;;;;;;9.25;5.50;;;2.30;99.90;;;;;;5031862;28;20049;-73
2022/03/05 07:34:39;;;;;;;9.82;6.25;;;2.10;99.90;;;;;;5047081;28;20693;-73
2022/03/05 07:37:05;;;;;;;9.13;5.80;;;2.30;99.90;;;;;;5024109;28;20040;-74
2022/03/05 07:39:30;;;;;;;11.32;6.30;;;2.20;99.90;;;;;;5028211;28;20029;-73
2022/03/05 07:41:56;;;;;;;10.38;5.97;;;2.20;99.90;;;;;;5018691;28;20068;-74
2022/03/05 07:44:22;;;;;;;9.65;5.80;;;2.20;99.90;;;;;;5034608;28;20041;-73
2022/03/05 07:46:47;;;;;;;9.77;6.15;;;2.50;99.90;;;;;;5013076;28;20420;-74
2022/03/05 07:49:13;;;;;;;8.48;5.15;;;2.00;99.90;;;;;;5008244;28;20036;-73
2022/03/05 07:51:39;;;;;;;8.98;6.20;;;2.20;99.90;;;;;;5035617;28;20139;-73
2022/03/05 07:54:05;;;;;;;11.70;5.85;;;2.00;99.90;;;;;;5032815;28;20113;-74
2022/03/05 07:56:31;;;;;;;7.45;5.25;;;2.10;99.90;;;;;;5037752;28;20422;-74
2022/03/05 07:58:57;;;;;;;8.73;5.53;;;2.00;99.90;;;;;;5001464;28;20090;-74
2022/03/05 08:01:23;;;;;;;11.27;6.35;;;2.40;99.90;;;;;;5034416;28;20037;-74
2022/03/05 08:03:48;;;;;;;9.48;5.30;;;2.40;99.90;;;;;;5034207;28;20044;-74
2022/03/05 08:06:15;;;;;;;7.38;4.88;;;2.30;99.90;;;;;;5035279;28;20036;-74
2022/03/05 08:08:40;;;;;;;8.30;5.60;;;2.90;99.90;;;;;;5016001;28;20064;-74
2022/03/05 08:11:07;;;;;;;8.80;6.15;;;2.30;99.90;;;;;;5034415;28;20048;-75
2022/03/05 08:13:32;;;;;;;9.85;6.65;;;2.20;99.90;;;;;;5002569;28;20239;-74
2022/03/05 08:15:58;;;;;;;10.02;5.90;;;3.00;99.90;;;;;;5034030;28;20048;-73
2022/03/05 08:18:24;;;;;;;10.82;7.03;;;2.30;99.90;;;;;;5034483;28;20373;-74
2022/03/05 08:20:50;;;;;;;10.27;6.22;;;2.60;99.90;;;;;;5001799;28;20607;-72
2022/03/05 08:23:16;;;;;;;8.75;5.75;;;2.60;99.90;;;;;;5018028;28;20043;-73
2022/03/05 08:25:41;;;;;;;10.45;6.18;;;2.70;99.90;;;;;;5023465;28;20120;-74
2022/03/05 08:28:07;;;;;;;10.43;6.35;;;3.60;99.90;;;;;;5018917;28;20049;-74
2022/03/05 08:30:33;;;;;;;8.82;5.05;;;3.00;99.90;;;;;;5039995;28;20044;-74
2022/03/05 08:32:59;;;;;;;9.38;5.93;;;2.80;99.90;;;;;;5018746;28;20037;-74
2022/03/05 08:35:25;;;;;;;10.68;7.05;;;2.60;99.90;;;;;;5019783;28;20068;-75
2022/03/05 08:37:51;;;;;;;10.45;6.45;;;2.80;99.90;;;;;;5030413;28;20103;-76
2022/03/05 08:40:18;;;;;;;9.18;6.72;;;3.10;99.90;;;;;;5017412;28;20091;-74
2022/03/05 08:42:45;;;;;;;10.48;6.40;;;3.30;99.90;;;;;;5017871;28;20102;-75
2022/03/05 08:45:12;;;;;;;10.55;7.03;;;3.20;99.90;;;;;;5033744;28;20098;-73
2022/03/05 08:47:38;;;;;;;13.32;7.70;;;3.20;99.90;;;;;;5017484;28;20128;-76
2022/03/05 08:50:05;;;;;;;10.75;6.43;;;3.20;99.90;;;;;;5018350;28;20037;-76
2022/03/05 08:52:38;;;;;;;11.77;7.00;;;3.60;99.90;;;;;;5022409;28;20427;-74
2022/03/05 08:55:08;;;;;;;10.77;6.60;;;3.60;99.90;;;;;;5019370;28;20080;-74
2022/03/05 08:57:34;;;;;;;10.32;6.75;;;3.70;99.90;;;;;;5033777;28;20090;-74
2022/03/05 09:00:00;;;;;;;9.45;5.90;;;3.50;99.90;;;;;;5000774;28;20025;-75
2022/03/05 09:02:26;;;;;;;11.50;7.20;;;3.40;99.90;;;;;;5036854;28;20424;-75
2022/03/05 09:04:53;;;;;;;10.07;6.68;;;4.70;99.90;;;;;;5040380;28;20407;-73
2022/03/05 09:07:19;;;;;;;13.35;6.50;;;3.80;99.90;;;;;;5028962;28;20076;-73
2022/03/05 09:09:45;;;;;;;11.98;6.22;;;4.70;99.90;;;;;;5015538;28;20079;-73
2022/03/05 09:12:10;;;;;;;11.85;6.70;;;3.60;99.90;;;;;;5015242;28;20140;-72
2022/03/05 09:14:36;;;;;;;15.45;7.45;;;3.90;99.90;;;;;;5027919;28;20103;-73
2022/03/05 09:17:02;;;;;;;11.60;6.57;;;4.10;99.90;;;;;;5031515;28;20098;-72
2022/03/05 09:19:27;;;;;;;12.80;7.72;;;3.80;99.90;;;;;;5014822;28;20079;-74
2022/03/05 09:21:53;;;;;;;10.85;6.85;;;4.00;99.90;;;;;;5046750;28;20060;-73
2022/03/05 09:24:19;;;;;;;13.15;7.00;;;4.00;99.90;;;;;;4996217;28;20044;-72
2022/03/05 09:26:45;;;;;;;12.80;6.82;;;4.10;99.90;;;;;;5023918;28;20055;-75
2022/03/05 09:29:10;;;;;;;13.48;7.03;;;4.20;99.90;;;;;;5008460;28;20041;-72
2022/03/05 09:31:36;;;;;;;9.70;5.57;;;4.20;99.90;;;;;;5036936;28;20132;-72
2022/03/05 09:34:02;;;;;;;12.10;6.47;;;4.00;99.90;;;;;;4995817;28;20067;-72
2022/03/05 09:36:28;;;;;;;9.85;5.60;;;4.30;99.90;;;;;;5031477;28;20084;-72
2022/03/05 09:38:54;;;;;;;10.43;5.63;;;4.40;99.90;;;;;;5004338;28;20069;-74
2022/03/05 09:41:21;;;;;;;11.63;7.53;;;4.60;99.90;;;;;;5041065;28;20119;-73
2022/03/05 09:43:47;;;;;;;12.52;6.75;;;4.40;99.90;;;;;;5026863;28;20464;-73
2022/03/05 09:46:17;;;;;;;10.93;6.35;;;4.50;99.90;;;;;;5024512;28;20045;-72
2022/03/05 09:48:43;;;;;;;10.35;6.50;;;4.50;99.90;;;;;;5024918;28;20051;-73
2022/03/05 09:51:09;;;;;;;9.65;5.07;;;4.50;99.90;;;;;;5007910;28;20048;-72
2022/03/05 09:53:34;;;;;;;10.10;5.55;;;4.70;99.90;;;;;;5001667;28;20060;-72
2022/03/05 09:56:00;;;;;;;11.77;7.63;;;4.90;99.90;;;;;;5008915;28;20521;-72
2022/03/05 09:58:26;;;;;;;12.48;7.07;;;5.00;99.90;;;;;;4968239;28;20049;-72
2022/03/05 10:00:55;;;;;;;10.63;7.00;;;5.10;99.90;;;;;;4956082;28;20568;-73
2022/03/05 10:03:22;;;;;;;13.23;7.05;;;5.20;99.90;;;;;;4986219;28;20049;-75
2022/03/05 10:05:48;;;;;;;11.93;7.90;;;5.30;99.90;;;;;;4995837;28;20048;-73
2022/03/05 10:08:16;;;;;;;10.40;6.10;;;5.60;99.90;;;;;;5000094;28;20045;-71
2022/03/05 10:10:57;;;;;;;13.27;6.43;;;5.50;99.90;;;;;;4966389;28;20521;-71
2022/03/05 10:13:32;;;;;;;14.98;7.32;;;5.40;99.90;;;;;;4990707;28;20112;-72
2022/03/05 10:15:59;;;;;;;15.07;7.88;;;5.40;99.90;;;;;;4994119;28;20045;-69
2022/03/05 10:18:37;;;;;;;13.23;8.15;;;5.70;99.90;;;;;;4967956;28;20442;-75
2022/03/05 10:21:06;;;;;;;11.75;6.45;;;5.80;99.90;;;;;;4968881;28;20531;-80
2022/03/05 10:23:43;;;;;;;15.40;8.00;;;5.60;99.90;;;;;;4969908;28;20739;-72
2022/03/05 10:26:10;;;;;;;11.95;6.80;;;5.70;99.90;;;;;;4983343;28;20042;-71
2022/03/05 10:28:37;;;;;;;12.02;6.93;;;5.70;99.90;;;;;;4969283;28;20049;-71
2022/03/05 10:31:11;;;;;;;9.05;6.32;;;5.70;99.90;;;;;;4991659;28;20073;-73
2022/03/05 10:33:45;;;;;;;15.43;7.93;;;5.90;99.90;;;;;;4965192;28;20042;-71
2022/03/05 10:36:18;;;;;;;13.25;7.00;;;5.80;99.90;;;;;;4979252;28;20050;-73
2022/03/05 10:38:52;;;;;;;12.98;7.85;;;5.80;99.90;;;;;;5000281;28;20088;-73
2022/03/05 10:41:40;;;;;;;13.88;7.82;;;5.80;99.90;;;;;;4969371;28;20046;-74
2022/03/05 10:44:15;;;;;;;11.55;6.65;;;5.80;99.90;;;;;;4986794;28;20046;-72
2022/03/05 10:46:56;;;;;;;12.80;7.30;;;5.60;99.90;;;;;;4972893;28;20053;-72
2022/03/05 10:49:44;;;;;;;12.65;6.78;;;5.60;99.90;;;;;;4970617;28;20037;-73
2022/03/05 10:52:10;;;;;;;11.10;5.95;;;5.60;99.90;;;;;;4980335;28;20057;-72
2022/03/05 10:54:43;;;;;;;14.25;8.18;;;5.60;99.90;;;;;;5007206;28;20536;-72
2022/03/05 10:57:14;;;;;;;10.40;6.13;;;5.50;99.90;;;;;;5026065;28;20135;-73
2022/03/05 10:59:41;;;;;;;11.35;6.00;;;5.80;99.90;;;;;;5012016;28;20034;-75
2022/03/05 11:02:08;;;;;;;12.07;6.50;;;5.80;99.90;;;;;;5012105;28;20049;-73
2022/03/05 11:04:36;;;;;;;10.85;6.47;;;5.90;99.90;;;;;;4991489;28;20074;-73
2022/03/05 11:07:02;;;;;;;12.15;8.25;;;5.70;99.90;;;;;;5007525;28;20048;-73
2022/03/05 11:09:29;;;;;;;10.70;6.82;;;5.80;99.90;;;;;;5015320;28;20187;-74
2022/03/05 11:11:57;;;;;;;12.80;7.13;;;6.00;99.90;;;;;;5004985;28;20481;-74
2022/03/05 11:14:24;;;;;;;14.75;8.98;;;5.90;99.90;;;;;;5026139;28;20037;-72
2022/03/05 11:16:50;;;;;;;11.10;6.75;;;6.00;99.90;;;;;;5028458;28;20052;-74
2022/03/05 11:19:16;;;;;;;12.80;7.22;;;5.90;99.90;;;;;;5024238;28;20508;-73
2022/03/05 11:21:42;;;;;;;12.75;7.65;;;6.10;99.90;;;;;;4997324;28;20041;-74
2022/03/05 11:24:13;;;;;;;18.85;9.30;;;6.30;99.90;;;;;;4978004;28;20037;-73
2022/03/05 11:26:39;;;;;;;14.23;7.90;;;6.30;99.90;;;;;;5009426;28;20600;-74
2022/03/05 11:29:05;;;;;;;11.93;8.02;;;6.30;99.90;;;;;;4992120;28;20401;-74
2022/03/05 11:31:34;;;;;;;12.68;7.88;;;6.30;99.90;;;;;;4991594;28;20056;-74
2022/03/05 11:34:14;;;;;;;14.07;7.95;;;6.40;99.90;;;;;;5010433;28;20041;-74
2022/03/05 11:36:41;;;;;;;13.48;7.63;;;6.60;99.90;;;;;;5000446;28;20045;-73
2022/03/05 11:39:22;;;;;;;16.35;9.10;;;6.40;99.90;;;;;;5001860;28;20047;-74
2022/03/05 11:42:03;;;;;;;14.57;8.07;;;6.30;99.90;;;;;;5024174;28;20381;-74
2022/03/05 11:44:40;;;;;;;13.68;7.88;;;6.40;99.90;;;;;;5008043;28;20382;-74
2022/03/05 11:47:18;;;;;;;14.38;7.20;;;6.30;99.90;;;;;;5012679;28;20493;-74
2022/03/05 11:49:59;;;;;;;13.07;8.68;;;6.30;99.90;;;;;;5007535;28;20396;-74
2022/03/05 11:52:40;;;;;;;12.35;7.38;;;6.20;99.90;;;;;;4978207;28;20061;-74
2022/03/05 11:55:24;;;;;;;16.77;7.85;;;6.30;99.90;;;;;;4980951;28;20746;-74
2022/03/05 11:57:52;;;;;;;15.88;9.57;;;6.30;99.90;;;;;;4984838;28;20053;-74
2022/03/05 12:00:29;;;;;;;13.60;8.68;;;6.40;99.90;;;;;;4987216;28;20045;-74
2022/03/05 12:02:56;;;;;;;9.60;5.93;;;6.50;99.90;;;;;;4992509;28;20696;-74
2022/03/05 12:05:41;;;;;;;11.95;7.35;;;6.40;99.90;;;;;;5004677;28;20741;-74
2022/03/05 12:08:11;;;;;;;;;;;6.40;99.90;;;;;;4983322;28;20597;-74
2022/03/05 12:10:38;;;;;;;12.40;6.60;;;6.50;99.90;;;;;;5008390;28;19921;-73
2022/03/05 12:13:09;;;;;;;10.85;6.93;;;6.40;99.90;;;;;;5003747;28;20564;-73
2022/03/05 12:15:35;;;;;;;13.73;8.05;;;6.40;99.90;;;;;;4988093;28;20050;-73
2022/03/05 12:18:05;;;;;;;12.50;7.38;;;6.50;99.90;;;;;;5000299;28;20052;-73
2022/03/05 12:20:34;;;;;;;13.13;8.55;;;6.50;99.90;;;;;;4997296;28;20049;-74
2022/03/05 12:23:04;;;;;;;12.75;7.57;;;6.60;99.90;;;;;;4994538;28;20042;-73
2022/03/05 12:25:38;;;;;;;15.13;9.00;;;6.50;99.90;;;;;;4994354;28;20049;-73
2022/03/05 12:28:11;;;;;;;21.40;12.27;;;6.70;99.90;;;;;;4980628;28;20115;-73
2022/03/05 12:30:38;;;;;;;21.02;13.20;;;6.80;99.90;;;;;;4971813;28;20052;-73
2022/03/05 12:33:15;;;;;;;26.15;14.35;;;6.70;99.90;;;;;;4986993;28;20050;-74
2022/03/05 12:35:43;;;;;;;27.02;17.42;;;6.80;99.90;;;;;;4952483;28;20050;-74
2022/03/05 12:38:09;;;;;;;17.75;11.02;;;6.90;99.90;;;;;;4960712;28;20140;-74
2022/03/05 12:40:36;;;;;;;15.10;9.32;;;6.90;99.90;;;;;;4971380;28;20037;-73
2022/03/05 12:43:04;;;;;;;14.93;9.70;;;7.20;99.90;;;;;;4969618;28;20042;-73
2022/03/05 12:45:33;;;;;;;12.80;8.85;;;7.30;99.90;;;;;;4992841;28;20449;-75
2022/03/05 12:48:07;;;;;;;10.23;7.53;;;7.30;99.90;;;;;;4988115;28;20064;-74
2022/03/05 12:50:37;;;;;;;12.68;7.28;;;7.30;99.90;;;;;;4984957;28;20049;-74
2022/03/05 12:53:10;;;;;;;12.10;7.13;;;7.40;99.90;;;;;;4998498;28;20057;-73